createdAt,value
2018-09-14T00:01:21.365Z,16.83
2018-09-14T00:03:53.464Z,16.80
2018-09-14T00:06:25.508Z,16.74
2018-09-14T00:08:57.554Z,16.68
2018-09-14T00:11:29.600Z,16.70
2018-09-14T00:14:01.656Z,16.65
2018-09-14T00:16:40.525Z,16.63
2018-09-14T00:19:12.598Z,16.63
2018-09-14T00:21:44.694Z,16.53
2018-09-14T00:24:16.757Z,16.54
2018-09-14T00:26:48.781Z,16.47
2018-09-14T00:29:20.892Z,16.44
2018-09-14T00:31:52.970Z,16.41
2018-09-14T00:34:25.032Z,16.39
2018-09-14T00:36:57.099Z,16.32
2018-09-14T00:39:29.120Z,16.32
2018-09-14T00:42:01.160Z,16.32
2018-09-14T00:44:33.244Z,16.33
2018-09-14T00:47:05.370Z,16.24
2018-09-14T00:49:37.415Z,16.20
2018-09-14T00:52:09.432Z,16.16
2018-09-14T00:54:41.501Z,16.10
2018-09-14T00:57:13.534Z,16.07
2018-09-14T00:59:45.605Z,16.02
2018-09-14T01:02:17.637Z,15.98
2018-09-14T01:04:49.746Z,15.96
2018-09-14T01:07:21.772Z,15.92
2018-09-14T01:09:53.795Z,15.87
2018-09-14T01:12:25.800Z,15.84
2018-09-14T01:14:57.852Z,15.82
2018-09-14T01:17:29.885Z,15.84
2018-09-14T01:20:01.935Z,15.84
2018-09-14T01:22:33.964Z,15.83
2018-09-14T01:25:06.057Z,15.81
2018-09-14T01:27:38.060Z,15.79
2018-09-14T01:30:10.110Z,15.77
2018-09-14T01:32:42.136Z,15.72
2018-09-14T01:36:19.444Z,15.67
2018-09-14T01:38:51.464Z,15.62
2018-09-14T01:41:23.490Z,15.61
2018-09-14T01:43:55.512Z,15.59
2018-09-14T01:46:27.560Z,15.55
2018-09-14T01:48:59.608Z,15.55
2018-09-14T01:51:31.667Z,15.56
2018-09-14T01:54:03.757Z,15.51
2018-09-14T01:56:35.800Z,15.50
2018-09-14T01:59:07.871Z,15.49
2018-09-14T02:01:39.916Z,15.49
2018-09-14T02:04:11.899Z,15.45
2018-09-14T02:06:43.987Z,15.46
2018-09-14T02:09:16.011Z,15.42
2018-09-14T02:11:48.029Z,15.37
2018-09-14T02:14:20.020Z,15.39
2018-09-14T02:16:52.091Z,15.38
2018-09-14T02:19:24.152Z,15.33
2018-09-14T02:21:56.277Z,15.32
2018-09-14T02:24:28.292Z,15.33
2018-09-14T02:27:00.379Z,15.28
2018-09-14T02:29:32.467Z,15.28
2018-09-14T02:32:04.817Z,15.26
2018-09-14T02:34:36.843Z,15.21
2018-09-14T02:37:09.858Z,15.22
2018-09-14T02:39:41.882Z,15.23
2018-09-14T02:42:13.940Z,15.21
2018-09-14T02:44:45.979Z,15.17
2018-09-14T02:47:18.061Z,15.15
2018-09-14T02:49:50.118Z,15.20
2018-09-14T02:52:22.147Z,15.21
2018-09-14T02:54:54.244Z,15.17
2018-09-14T02:57:26.260Z,15.16
2018-09-14T02:59:58.311Z,15.15
2018-09-14T03:02:30.352Z,15.23
2018-09-14T03:05:02.415Z,15.14
2018-09-14T03:07:34.422Z,15.14
2018-09-14T03:10:06.488Z,15.19
2018-09-14T03:12:38.575Z,15.16
2018-09-14T03:15:10.639Z,15.15
2018-09-14T03:17:42.695Z,15.16
2018-09-14T03:20:14.699Z,15.06
2018-09-14T03:22:46.727Z,15.18
2018-09-14T03:25:18.756Z,15.23
2018-09-14T03:27:50.784Z,15.17
2018-09-14T03:30:22.846Z,15.17
2018-09-14T03:32:54.999Z,15.13
2018-09-14T03:35:27.125Z,15.13
2018-09-14T03:37:59.225Z,15.13
2018-09-14T03:40:31.254Z,15.12
2018-09-14T03:43:03.271Z,15.01
2018-09-14T03:45:35.352Z,15.03
2018-09-14T03:48:07.407Z,15.03
2018-09-14T03:50:39.445Z,15.02
2018-09-14T03:53:11.462Z,14.99
2018-09-14T03:55:43.668Z,14.97
2018-09-14T03:58:15.699Z,14.94
2018-09-14T04:00:47.790Z,14.95
2018-09-14T04:03:19.823Z,15.00
2018-09-14T04:05:51.872Z,15.01
2018-09-14T04:08:23.892Z,14.93
2018-09-14T04:10:55.980Z,15.00
2018-09-14T04:13:28.008Z,15.02
2018-09-14T04:16:00.071Z,15.00
2018-09-14T04:18:32.115Z,15.04
2018-09-14T04:21:04.184Z,15.04
2018-09-14T04:23:36.354Z,15.01
2018-09-14T04:26:08.397Z,15.00
2018-09-14T04:28:40.461Z,15.04
2018-09-14T04:31:12.539Z,15.08
2018-09-14T04:33:44.659Z,15.05
2018-09-14T04:36:16.940Z,15.03
2018-09-14T04:38:49.132Z,15.04
2018-09-14T04:41:21.169Z,15.05
2018-09-14T04:43:53.274Z,15.09
2018-09-14T04:46:25.308Z,15.04
2018-09-14T04:48:57.324Z,15.05
2018-09-14T04:51:29.390Z,15.06
2018-09-14T04:54:01.412Z,15.13
2018-09-14T04:56:33.430Z,15.05
2018-09-14T04:59:05.451Z,15.05
2018-09-14T05:01:37.488Z,15.07
2018-09-14T05:04:09.534Z,15.05
2018-09-14T05:06:42.388Z,15.06
2018-09-14T05:09:14.410Z,15.04
2018-09-14T05:11:46.421Z,15.06
2018-09-14T05:14:18.588Z,15.07
2018-09-14T05:16:50.468Z,15.08
2018-09-14T05:19:22.451Z,15.11
2018-09-14T05:21:54.501Z,15.14
2018-09-14T05:24:26.546Z,15.17
2018-09-14T05:26:58.958Z,15.16
2018-09-14T05:29:31.002Z,15.19
2018-09-14T05:32:03.121Z,15.20
2018-09-14T05:34:35.153Z,15.22
2018-09-14T05:37:08.643Z,15.25
2018-09-14T05:39:41.787Z,15.28
2018-09-14T05:42:13.936Z,15.27
2018-09-14T05:44:45.999Z,15.31
2018-09-14T05:47:18.063Z,15.37
2018-09-14T05:49:50.255Z,15.43
2018-09-14T05:52:22.656Z,15.46
2018-09-14T05:54:55.952Z,15.57
2018-09-14T05:57:28.638Z,15.62
2018-09-14T06:00:01.165Z,15.67
2018-09-14T06:02:33.901Z,15.68
2018-09-14T06:05:08.304Z,15.73
2018-09-14T06:07:40.407Z,15.71
2018-09-14T06:10:12.471Z,15.65
2018-09-14T06:12:44.512Z,15.73
2018-09-14T06:15:17.687Z,15.73
2018-09-14T06:17:49.851Z,15.81
2018-09-14T06:20:21.916Z,15.81
2018-09-14T06:22:54.063Z,15.87
2018-09-14T06:25:26.119Z,15.93
2018-09-14T06:27:58.201Z,15.87
2018-09-14T06:30:30.963Z,15.95
2018-09-14T06:33:03.021Z,16.02
2018-09-14T06:35:35.075Z,16.05
2018-09-14T06:38:07.333Z,16.13
2018-09-14T06:40:39.506Z,16.23
2018-09-14T06:43:11.714Z,16.25
2018-09-14T06:45:43.764Z,16.34
2018-09-14T06:48:15.826Z,16.27
2018-09-14T06:50:48.175Z,16.29
2018-09-14T06:53:20.314Z,16.38
2018-09-14T06:55:52.329Z,16.47
2018-09-14T06:58:24.481Z,16.57
2018-09-14T07:00:56.587Z,16.58
2018-09-14T07:03:28.661Z,16.74
2018-09-14T07:06:00.725Z,16.75
2018-09-14T07:08:32.773Z,16.86
2018-09-14T07:11:04.856Z,16.88
2018-09-14T07:13:36.936Z,16.94
2018-09-14T07:16:08.985Z,17.12
2018-09-14T07:18:41.059Z,17.22
2018-09-14T07:21:13.126Z,17.33
2018-09-14T07:23:45.183Z,17.28
2018-09-14T07:26:17.226Z,17.22
2018-09-14T07:28:49.582Z,17.11
2018-09-14T07:31:21.581Z,17.01
2018-09-14T07:33:53.593Z,17.02
2018-09-14T07:36:25.717Z,16.93
2018-09-14T07:38:57.740Z,16.85
2018-09-14T07:41:29.744Z,16.76
2018-09-14T07:44:01.772Z,16.88
2018-09-14T07:46:33.811Z,16.90
2018-09-14T07:49:05.920Z,16.92
2018-09-14T07:51:37.945Z,16.89
2018-09-14T07:54:10.014Z,16.90
2018-09-14T07:56:42.099Z,17.32
2018-09-14T07:59:14.136Z,17.50
2018-09-14T08:01:46.205Z,17.95
2018-09-14T08:04:18.246Z,18.42
2018-09-14T08:06:50.287Z,18.57
2018-09-14T08:09:22.400Z,18.76
2018-09-14T08:11:54.500Z,18.89
2018-09-14T08:14:26.496Z,18.87
2018-09-14T08:16:58.543Z,18.85
2018-09-14T08:19:30.582Z,18.82
2018-09-14T08:22:02.679Z,18.71
2018-09-14T08:24:34.819Z,18.68
2018-09-14T08:27:06.920Z,19.00
2018-09-14T08:29:38.965Z,19.18
2018-09-14T08:32:11.034Z,19.02
2018-09-14T08:34:43.060Z,18.77
2018-09-14T08:37:15.325Z,18.82
2018-09-14T08:39:47.411Z,19.22
2018-09-14T08:42:19.427Z,19.66
2018-09-14T08:44:51.594Z,19.64
2018-09-14T08:47:23.655Z,20.05
2018-09-14T08:49:55.711Z,20.21
2018-09-14T08:52:27.740Z,19.87
2018-09-14T08:54:59.899Z,20.05
2018-09-14T08:57:32.002Z,20.01
2018-09-14T09:00:04.117Z,20.20
2018-09-14T09:02:36.147Z,20.47
2018-09-14T09:05:08.209Z,19.64
2018-09-14T09:07:40.254Z,19.12
2018-09-14T09:10:12.297Z,19.26
2018-09-14T09:12:46.249Z,19.16
2018-09-14T09:15:18.305Z,19.15
2018-09-14T09:17:50.435Z,18.94
2018-09-14T09:20:22.395Z,18.76
2018-09-14T09:22:54.415Z,18.70
2018-09-14T09:25:26.488Z,18.57
2018-09-14T09:27:58.582Z,18.55
2018-09-14T09:30:30.642Z,18.41
2018-09-14T09:33:02.679Z,18.18
2018-09-14T09:35:38.701Z,18.09
2018-09-14T09:38:10.734Z,18.23
2018-09-14T09:40:42.787Z,18.65
2018-09-14T09:43:14.929Z,18.78
2018-09-14T09:45:46.919Z,18.64
2018-09-14T09:48:19.034Z,18.52
2018-09-14T09:50:51.168Z,18.68
2018-09-14T09:53:23.202Z,19.07
2018-09-14T09:55:55.242Z,19.40
2018-09-14T09:58:28.194Z,19.24
2018-09-14T10:01:05.887Z,19.35
2018-09-14T10:03:48.618Z,19.49
2018-09-14T10:06:23.267Z,19.48
2018-09-14T10:08:56.319Z,19.20
2018-09-14T10:11:28.383Z,19.07
2018-09-14T10:14:00.540Z,19.40
2018-09-14T10:16:32.947Z,19.19
2018-09-14T10:19:05.258Z,19.40
2018-09-14T10:21:37.404Z,19.16
2018-09-14T10:24:09.516Z,19.48
2018-09-14T10:26:41.602Z,19.73
2018-09-14T10:29:13.659Z,19.85
2018-09-14T10:31:45.807Z,19.72
2018-09-14T10:34:18.303Z,19.74
2018-09-14T10:36:50.381Z,19.64
2018-09-14T10:39:22.466Z,19.68
2018-09-14T10:41:58.208Z,19.79
2018-09-14T10:44:30.381Z,19.74
2018-09-14T10:47:02.527Z,19.53
2018-09-14T10:49:34.606Z,19.79
2018-09-14T10:52:06.705Z,19.69
2018-09-14T10:54:38.743Z,20.79
2018-09-14T10:57:10.800Z,21.36
2018-09-14T10:59:42.851Z,22.12
2018-09-14T11:02:14.932Z,23.16
2018-09-14T11:04:47.027Z,23.97
2018-09-14T11:07:19.076Z,24.15
2018-09-14T11:09:51.234Z,24.03
2018-09-14T11:12:23.322Z,22.09
2018-09-14T11:14:55.437Z,21.38
2018-09-14T11:17:27.643Z,21.44
2018-09-14T11:19:59.868Z,21.50
2018-09-14T11:22:32.033Z,21.48
2018-09-14T11:25:04.164Z,21.15
2018-09-14T11:27:36.241Z,21.62
2018-09-14T11:30:08.845Z,22.02
2018-09-14T11:32:40.939Z,22.53
2018-09-14T11:35:13.080Z,23.12
2018-09-14T11:37:45.226Z,23.06
2018-09-14T11:40:17.924Z,22.10
2018-09-14T11:42:50.029Z,21.70
2018-09-14T11:45:22.114Z,21.99
2018-09-14T11:47:54.141Z,21.63
2018-09-14T11:50:26.330Z,21.78
2018-09-14T11:52:58.496Z,21.85
2018-09-14T11:55:30.640Z,22.32
2018-09-14T11:58:02.728Z,23.10
2018-09-14T12:00:34.833Z,23.98
2018-09-14T12:03:06.960Z,23.89
2018-09-14T12:05:39.007Z,23.51
2018-09-14T12:08:11.066Z,23.98
2018-09-14T12:10:43.120Z,24.11
2018-09-14T12:13:15.201Z,24.25
2018-09-14T12:15:47.289Z,23.63
2018-09-14T12:18:19.668Z,23.12
2018-09-14T12:20:51.967Z,22.61
2018-09-14T12:23:24.820Z,22.42
2018-09-14T12:25:58.444Z,22.98
2018-09-14T12:28:31.128Z,22.47
2018-09-14T12:31:03.858Z,22.55
2018-09-14T12:33:36.444Z,22.49
2018-09-14T12:36:08.529Z,22.28
2018-09-14T12:38:40.598Z,22.13
2018-09-14T12:41:12.767Z,22.70
2018-09-14T12:43:44.862Z,22.77
2018-09-14T12:46:16.967Z,23.49
2018-09-14T12:48:49.126Z,23.72
2018-09-14T12:51:21.067Z,23.92
2018-09-14T12:53:53.172Z,24.54
2018-09-14T12:56:25.345Z,25.28
2018-09-14T12:58:57.383Z,25.92
2018-09-14T13:01:29.450Z,25.98
2018-09-14T13:04:01.649Z,25.73
2018-09-14T13:06:33.814Z,25.27
2018-09-14T13:09:07.862Z,26.14
2018-09-14T13:11:40.552Z,27.53
2018-09-14T13:14:12.588Z,27.00
2018-09-14T13:16:44.633Z,25.04
2018-09-14T13:19:17.662Z,24.41
2018-09-14T13:21:49.690Z,23.95
2018-09-14T13:24:21.774Z,23.77
2018-09-14T13:26:53.904Z,23.53
2018-09-14T13:29:25.946Z,22.28
2018-09-14T13:31:58.090Z,22.56
2018-09-14T13:34:30.270Z,22.86
2018-09-14T13:37:02.347Z,23.16
2018-09-14T13:39:34.430Z,23.49
2018-09-14T13:42:06.555Z,23.47
2018-09-14T13:44:38.641Z,23.51
2018-09-14T13:47:10.749Z,23.54
2018-09-14T13:49:42.853Z,23.21
2018-09-14T13:52:15.020Z,23.67
2018-09-14T13:54:47.261Z,24.92
2018-09-14T13:57:19.377Z,27.78
2018-09-14T13:59:52.339Z,28.14
2018-09-14T14:02:24.843Z,27.59
2018-09-14T14:04:56.919Z,25.05
2018-09-14T14:07:29.023Z,24.03
2018-09-14T14:10:01.105Z,22.89
2018-09-14T14:12:33.159Z,22.33
2018-09-14T14:15:05.825Z,22.29
2018-09-14T14:17:38.082Z,22.45
2018-09-14T14:20:10.115Z,22.44
2018-09-14T14:22:42.301Z,22.39
2018-09-14T14:25:14.360Z,22.60
2018-09-14T14:27:46.397Z,22.62
2018-09-14T14:30:18.487Z,22.48
2018-09-14T14:32:50.539Z,22.46
2018-09-14T14:35:22.725Z,22.46
2018-09-14T14:37:54.771Z,22.76
2018-09-14T14:40:26.840Z,22.88
2018-09-14T14:42:58.896Z,23.20
2018-09-14T14:45:30.985Z,24.83
2018-09-14T14:48:03.220Z,27.19
2018-09-14T14:50:36.007Z,29.38
2018-09-14T14:53:09.146Z,30.75
2018-09-14T14:55:41.218Z,31.43
2018-09-14T14:58:13.573Z,30.78
2018-09-14T15:00:45.773Z,30.62
2018-09-14T15:03:17.868Z,31.43
2018-09-14T15:05:49.995Z,30.24
2018-09-14T15:08:22.311Z,29.39
2018-09-14T15:10:54.425Z,28.01
2018-09-14T15:13:26.505Z,27.80
2018-09-14T15:15:58.523Z,27.41
2018-09-14T15:18:30.603Z,26.04
2018-09-14T15:21:02.671Z,25.55
2018-09-14T15:23:34.755Z,24.66
2018-09-14T15:26:06.879Z,24.18
2018-09-14T15:28:38.994Z,24.19
2018-09-14T15:31:11.031Z,23.94
2018-09-14T15:33:43.124Z,24.29
2018-09-14T15:36:15.139Z,24.20
2018-09-14T15:38:47.292Z,23.83
2018-09-14T15:41:19.331Z,23.34
2018-09-14T15:43:51.564Z,22.09
2018-09-14T15:46:23.651Z,21.99
2018-09-14T15:48:55.683Z,21.46
2018-09-14T15:51:27.774Z,21.18
2018-09-14T15:53:59.947Z,20.92
2018-09-14T15:56:31.968Z,20.98
2018-09-14T15:59:04.283Z,21.03
2018-09-14T16:01:36.328Z,20.98
2018-09-14T16:04:08.528Z,20.87
2018-09-14T16:06:40.570Z,20.72
2018-09-14T16:09:12.712Z,20.68
2018-09-14T16:11:44.780Z,20.63
2018-09-14T16:14:16.807Z,20.63
2018-09-14T16:16:48.903Z,20.69
2018-09-14T16:19:21.061Z,20.71
2018-09-14T16:21:53.135Z,20.77
2018-09-14T16:24:25.217Z,20.58
2018-09-14T16:26:57.293Z,20.52
2018-09-14T16:29:29.377Z,20.41
2018-09-14T16:32:01.421Z,20.31
2018-09-14T16:34:33.504Z,20.16
2018-09-14T16:37:05.657Z,20.05
2018-09-14T16:39:37.717Z,20.05
2018-09-14T16:42:09.786Z,19.86
2018-09-14T16:44:41.876Z,19.77
2018-09-14T16:47:14.661Z,19.68
2018-09-14T16:49:46.715Z,19.51
2018-09-14T16:52:18.959Z,19.42
2018-09-14T16:54:51.009Z,19.31
2018-09-14T16:57:23.193Z,19.20
2018-09-14T16:59:55.255Z,19.14
2018-09-14T17:02:27.348Z,19.07
2018-09-14T17:04:59.417Z,18.98
2018-09-14T17:07:31.556Z,18.88
2018-09-14T17:10:03.956Z,18.85
2018-09-14T17:12:36.061Z,18.74
2018-09-14T17:15:08.173Z,18.69
2018-09-14T17:17:40.252Z,18.52
2018-09-14T17:20:12.356Z,18.45
2018-09-14T17:22:44.459Z,18.40
2018-09-14T17:25:16.559Z,18.43
2018-09-14T17:27:48.655Z,18.43
2018-09-14T17:30:20.748Z,18.48
2018-09-14T17:32:52.837Z,18.50
2018-09-14T17:35:25.011Z,18.48
2018-09-14T17:37:57.084Z,18.60
2018-09-14T17:40:29.184Z,18.62
2018-09-14T17:43:01.338Z,18.59
2018-09-14T17:45:33.406Z,18.57
2018-09-14T17:48:05.554Z,18.62
2018-09-14T17:50:37.676Z,18.59
2018-09-14T17:53:09.858Z,18.58
2018-09-14T17:55:41.954Z,18.56
2018-09-14T17:58:14.075Z,18.50
2018-09-14T18:00:46.166Z,18.51
2018-09-14T18:03:18.317Z,18.54
2018-09-14T18:05:51.073Z,18.50
2018-09-14T18:08:23.176Z,18.47
2018-09-14T18:10:55.288Z,18.43
2018-09-14T18:13:27.389Z,18.38
2018-09-14T18:15:59.505Z,18.40
2018-09-14T18:18:31.667Z,18.46
2018-09-14T18:21:03.702Z,18.53
2018-09-14T18:23:35.761Z,18.57
2018-09-14T18:26:08.080Z,18.58
2018-09-14T18:28:40.214Z,18.59
2018-09-14T18:31:12.325Z,18.50
2018-09-14T18:33:44.444Z,18.44
2018-09-14T18:36:16.606Z,18.40
2018-09-14T18:38:48.674Z,18.35
2018-09-14T18:41:20.786Z,18.30
2018-09-14T18:43:52.829Z,18.33
2018-09-14T18:46:24.954Z,18.28
2018-09-14T18:48:57.032Z,18.35
2018-09-14T18:51:29.227Z,18.34
2018-09-14T18:54:01.319Z,18.29
2018-09-14T18:56:33.398Z,18.26
2018-09-14T18:59:05.547Z,18.22
2018-09-14T19:01:37.673Z,18.11
2018-09-14T19:04:09.782Z,18.13
2018-09-14T19:06:41.932Z,18.10
2018-09-14T19:09:14.031Z,17.99
2018-09-14T19:11:46.266Z,17.92
2018-09-14T19:14:18.305Z,17.84
2018-09-14T19:16:50.454Z,17.79
2018-09-14T19:19:22.635Z,17.67
2018-09-14T19:21:54.655Z,17.59
2018-09-14T19:24:26.724Z,17.49
2018-09-14T19:26:58.836Z,17.45
2018-09-14T19:29:30.925Z,17.42
2018-09-14T19:32:03.012Z,17.43
2018-09-14T19:34:35.098Z,17.38
2018-09-14T19:37:07.203Z,17.29
2018-09-14T19:39:39.348Z,17.28
2018-09-14T19:42:11.661Z,17.21
2018-09-14T19:44:43.829Z,17.17
2018-09-14T19:47:15.943Z,17.14
2018-09-14T19:49:47.969Z,17.08
2018-09-14T19:52:20.035Z,17.04
2018-09-14T19:54:52.085Z,17.05
2018-09-14T19:57:24.231Z,17.01
2018-09-14T19:59:56.242Z,17.06
2018-09-14T20:02:28.344Z,17.01
2018-09-14T20:05:00.363Z,16.98
2018-09-14T20:07:32.414Z,16.95
2018-09-14T20:10:04.483Z,17.01
2018-09-14T20:12:36.564Z,17.03
2018-09-14T20:15:08.713Z,17.06
2018-09-14T20:17:40.808Z,17.07
2018-09-14T20:20:12.923Z,17.09
2018-09-14T20:22:44.991Z,17.16
2018-09-14T20:25:17.077Z,17.22
2018-09-14T20:27:49.244Z,17.21
2018-09-14T20:30:21.397Z,17.14
2018-09-14T20:32:53.444Z,17.08
2018-09-14T20:35:25.543Z,17.03
2018-09-14T20:37:57.679Z,17.04
2018-09-14T20:40:29.795Z,17.09
2018-09-14T20:43:01.873Z,17.05
2018-09-14T20:45:33.908Z,17.08
2018-09-14T20:48:06.008Z,17.03
2018-09-14T20:50:38.112Z,17.04
2018-09-14T20:53:10.272Z,17.00
2018-09-14T20:55:42.332Z,16.97
2018-09-14T20:58:14.463Z,16.97
2018-09-14T21:00:46.521Z,16.97
2018-09-14T21:03:18.645Z,16.94
2018-09-14T21:05:50.746Z,16.92
2018-09-14T21:08:22.819Z,16.93
2018-09-14T21:10:54.915Z,16.79
2018-09-14T21:13:27.033Z,16.76
2018-09-14T21:15:59.183Z,16.72
2018-09-14T21:18:31.200Z,16.69
2018-09-14T21:21:03.312Z,16.66
2018-09-14T21:23:35.416Z,16.67
2018-09-14T21:26:07.484Z,16.64
2018-09-14T21:28:39.564Z,16.65
2018-09-14T21:31:11.656Z,16.59
2018-09-14T21:33:43.838Z,16.61
2018-09-14T21:36:15.805Z,16.63
2018-09-14T21:38:47.866Z,16.58
2018-09-14T21:41:19.992Z,16.62
2018-09-14T21:43:52.155Z,16.55
2018-09-14T21:46:24.298Z,16.42
2018-09-14T21:48:56.416Z,16.38
2018-09-14T21:51:28.478Z,16.27
2018-09-14T21:54:00.604Z,16.20
2018-09-14T21:56:32.599Z,16.08
2018-09-14T21:59:04.687Z,15.99
2018-09-14T22:01:36.816Z,15.94
2018-09-14T22:04:08.853Z,15.84
2018-09-14T22:06:40.876Z,15.73
2018-09-14T22:09:12.935Z,15.70
2018-09-14T22:11:44.964Z,15.63
2018-09-14T22:14:17.026Z,15.69
2018-09-14T22:16:49.132Z,15.71
2018-09-14T22:19:21.238Z,15.84
2018-09-14T22:21:53.336Z,15.98
2018-09-14T22:24:25.401Z,16.06
2018-09-14T22:26:57.448Z,16.23
2018-09-14T22:29:29.576Z,16.34
2018-09-14T22:32:01.647Z,16.34
2018-09-14T22:34:33.693Z,16.24
2018-09-14T22:37:05.818Z,16.24
2018-09-14T22:39:37.950Z,16.18
2018-09-14T22:42:10.016Z,16.12
2018-09-14T22:44:42.071Z,16.21
2018-09-14T22:47:14.082Z,16.24
2018-09-14T22:49:46.096Z,16.30
2018-09-14T22:52:18.195Z,16.31
2018-09-14T22:54:50.501Z,16.36
2018-09-14T22:57:22.610Z,16.24
2018-09-14T22:59:54.699Z,16.14
2018-09-14T23:02:26.756Z,16.01
2018-09-14T23:04:58.849Z,15.95
2018-09-14T23:07:30.962Z,15.81
2018-09-14T23:10:03.039Z,15.75
2018-09-14T23:12:35.103Z,15.69
2018-09-14T23:15:07.176Z,15.68
2018-09-14T23:17:39.257Z,15.60
2018-09-14T23:20:11.321Z,15.43
2018-09-14T23:22:43.406Z,15.33
2018-09-14T23:25:15.474Z,15.12
2018-09-14T23:27:47.519Z,15.09
2018-09-14T23:30:19.584Z,15.14
2018-09-14T23:32:51.679Z,15.15
2018-09-14T23:35:23.729Z,15.08
2018-09-14T23:37:55.742Z,15.03
2018-09-14T23:40:27.825Z,14.95
2018-09-14T23:43:01.016Z,14.97
2018-09-14T23:45:33.200Z,15.02
2018-09-14T23:48:05.304Z,15.10
2018-09-14T23:50:37.397Z,15.12
2018-09-14T23:53:09.688Z,15.16
2018-09-14T23:55:42.900Z,15.26
2018-09-14T23:58:15.071Z,15.26
